Time;durP1;ratioP1;P1;durP2;ratioP2;P2;SDS_P1;SDS_P2;PMS_P1;PMS_P2;Temp;Humidity;BMP_temperature;BMP_pressure;BME280_temperature;BME280_humidity;BME280_pressure;Samples;Min_cycle;Max_cycle;Signal;HPM_P1;HPM_P2
2021/07/09 00:01:37;;;;;;;476.70;154.23;;;;;;;-144.99;98.14;52223.88;5027107;28;20291;-62
2021/07/09 00:04:05;;;;;;;464.98;144.98;;;;;;;-144.99;98.02;52244.28;5002178;28;20241;-60
2021/07/09 00:06:32;;;;;;;468.33;143.23;;;;;;;-144.99;98.13;52240.19;5010176;28;20237;-60
2021/07/09 00:08:59;;;;;;;469.17;147.38;;;;;;;-144.99;98.02;52244.28;5001911;28;20621;-60
2021/07/09 00:11:26;;;;;;;467.38;143.10;;;;;;;-144.99;97.79;52248.34;5010065;28;20264;-60
2021/07/09 00:13:53;;;;;;;332.85;104.57;;;;;;;-144.99;97.89;52195.34;5009825;28;20215;-60
2021/07/09 00:16:20;;;;;;;459.92;148.70;;;;;;;-144.99;97.76;52207.59;5009845;28;20219;-60
2021/07/09 00:18:50;;;;;;;329.88;106.80;;;;;;;-144.99;97.96;52260.56;5009146;28;20218;-60
2021/07/09 00:21:18;;;;;;;456.23;143.65;;;;;;;-144.99;97.95;52240.19;5009745;28;20257;-59
2021/07/09 00:23:45;;;;;;;460.95;144.73;;;;;;;-144.99;97.74;52236.13;5009673;28;20281;-60
2021/07/09 00:26:13;;;;;;;466.17;143.70;;;;;;;-144.99;97.82;52248.34;5009695;28;20216;-60
2021/07/09 00:28:39;;;;;;;459.00;148.60;;;;;;;-144.99;97.59;52236.13;5009096;28;20214;-60
2021/07/09 00:31:06;;;;;;;458.50;143.25;;;;;;;-144.99;97.70;52262.63;5017913;28;20418;-61
2021/07/09 00:33:33;;;;;;;458.05;145.90;;;;;;;-144.99;97.71;52223.88;5009721;28;20241;-60
2021/07/09 00:35:59;;;;;;;457.80;144.80;;;;;;;-144.99;97.52;52215.75;5010014;28;20709;-61
2021/07/09 00:38:27;;;;;;;328.57;101.07;;;;;;;-144.99;97.56;52195.34;5010208;28;20210;-60
2021/07/09 00:40:53;;;;;;;334.38;103.70;;;;;;;-144.99;97.64;52248.34;5009476;28;20661;-60
2021/07/09 00:43:21;;;;;;;461.58;142.52;;;;;;;-144.99;97.43;52244.28;5008974;28;20778;-60
2021/07/09 00:45:47;;;;;;;464.27;142.70;;;;;;;-144.99;97.29;52252.44;5009705;28;20250;-59
2021/07/09 00:48:14;;;;;;;329.33;98.87;;;;;;;-144.99;97.46;52266.69;5009554;28;20588;-60
2021/07/09 00:50:40;;;;;;;467.02;141.65;;;;;;;-144.99;97.51;52219.81;5009551;28;20668;-61
2021/07/09 00:53:07;;;;;;;467.33;141.18;;;;;;;-144.99;97.57;52260.56;5011238;28;20658;-61
2021/07/09 00:55:35;;;;;;;460.00;139.10;;;;;;;-144.99;97.57;52260.56;5025519;28;20211;-62
2021/07/09 00:58:05;;;;;;;470.40;141.32;;;;;;;-144.99;97.68;52262.63;5008571;28;20215;-61
2021/07/09 01:00:32;;;;;;;340.92;103.38;;;;;;;-144.99;97.48;52248.34;5024362;28;20226;-61
2021/07/09 01:02:59;;;;;;;471.55;140.02;;;;;;;-144.99;97.78;52252.44;5008558;28;20262;-61
2021/07/09 01:05:26;;;;;;;474.08;139.75;;;;;;;-144.99;97.81;52240.19;5009256;28;20218;-61
2021/07/09 01:07:52;;;;;;;473.92;140.23;;;;;;;-144.99;97.58;52219.81;5005979;28;20226;-62
2021/07/09 01:10:21;;;;;;;473.67;136.63;;;;;;;-144.99;97.63;52213.69;5015600;28;20239;-61
2021/07/09 01:12:49;;;;;;;471.45;137.75;;;;;;;-144.99;97.71;52227.97;5019121;28;20690;-61
2021/07/09 01:15:18;;;;;;;475.80;136.27;;;;;;;-144.99;97.69;52219.81;5009121;28;20232;-60
2021/07/09 01:17:45;;;;;;;475.58;137.77;;;;;;;-144.99;97.45;52223.88;5009701;28;20214;-61
2021/07/09 01:20:14;;;;;;;475.80;138.23;;;;;;;-144.99;97.70;52219.81;5009158;28;20237;-60
2021/07/09 01:22:43;;;;;;;477.05;141.45;;;;;;;-144.99;97.57;52240.19;5009726;28;20223;-60
2021/07/09 01:25:14;;;;;;;472.73;137.25;;;;;;;-144.99;97.43;52268.72;5009696;28;20837;-60
2021/07/09 01:27:44;;;;;;;476.73;139.75;;;;;;;-144.99;97.47;52287.06;5009409;28;20218;-60
2021/07/09 01:30:13;;;;;;;473.63;139.80;;;;;;;-144.99;97.02;52266.69;5001191;28;20234;-60
2021/07/09 01:32:39;;;;;;;475.67;137.55;;;;;;;-144.99;97.38;52272.81;5008891;28;20226;-61
2021/07/09 01:35:08;;;;;;;464.15;136.40;;;;;;;-144.99;97.10;52252.44;5008862;28;20734;-62
2021/07/09 01:37:34;;;;;;;342.13;98.55;;;;;;;-144.99;97.13;52219.81;5009072;28;20211;-62
2021/07/09 01:40:03;;;;;;;475.20;137.77;;;;;;;-144.99;96.92;52287.06;5003964;28;20238;-62
2021/07/09 01:42:31;;;;;;;474.33;140.18;;;;;;;-144.99;96.82;52244.28;5014090;28;20218;-62
2021/07/09 01:44:57;;;;;;;473.63;137.85;;;;;;;-144.99;96.78;52199.44;5013632;28;20232;-61
2021/07/09 01:47:24;;;;;;;473.25;139.25;;;;;;;-144.99;96.77;52244.28;5008114;28;20576;-61
2021/07/09 01:49:53;;;;;;;475.73;135.35;;;;;;;-144.99;96.76;52246.31;5008525;28;20242;-61
2021/07/09 01:52:23;;;;;;;475.50;138.00;;;;;;;-144.99;96.54;52244.28;5008924;28;20211;-61
2021/07/09 01:54:50;;;;;;;473.02;138.75;;;;;;;-144.99;96.45;52272.81;5009175;28;20211;-60
2021/07/09 01:57:17;;;;;;;478.30;141.90;;;;;;;-144.99;96.45;52236.13;5008660;28;20210;-61
2021/07/09 01:59:46;;;;;;;469.95;140.50;;;;;;;-144.99;96.37;52268.72;5019927;28;20222;-61
2021/07/09 02:02:14;;;;;;;342.92;103.40;;;;;;;-144.99;96.70;52234.09;5010986;28;20720;-60
2021/07/09 02:04:45;;;;;;;473.98;140.35;;;;;;;-144.99;96.56;52250.38;5008159;28;20227;-61
2021/07/09 02:07:12;;;;;;;475.65;140.07;;;;;;;-144.99;96.49;52248.34;5008287;28;20222;-61
2021/07/09 02:09:42;;;;;;;480.48;142.90;;;;;;;-144.99;96.72;52280.97;5008850;28;20737;-61
2021/07/09 02:12:08;;;;;;;479.33;140.48;;;;;;;-144.99;96.64;52260.56;5011707;28;20210;-61
2021/07/09 02:14:35;;;;;;;479.38;137.55;;;;;;;-144.99;96.45;52283.00;5011967;28;20211;-62
2021/07/09 02:17:09;;;;;;;479.25;138.55;;;;;;;-144.99;96.47;52260.56;5015978;28;20219;-62
2021/07/09 02:19:36;;;;;;;479.83;136.95;;;;;;;-144.99;96.64;52252.44;5011550;28;20231;-60
2021/07/09 02:22:05;;;;;;;345.80;97.60;;;;;;;-144.99;96.69;52244.28;5011771;28;20211;-63
2021/07/09 02:24:34;;;;;;;478.20;134.95;;;;;;;-144.99;96.45;52268.72;5011412;28;20250;-63
2021/07/09 02:27:01;;;;;;;345.35;97.60;;;;;;;-144.99;96.56;52252.44;5011795;28;20305;-62
2021/07/09 02:29:28;;;;;;;478.02;136.20;;;;;;;-144.99;96.54;52240.19;5008126;28;20229;-60
2021/07/09 02:31:54;;;;;;;475.50;135.18;;;;;;;-144.99;96.59;52264.66;5020933;28;20211;-60
2021/07/09 02:34:22;;;;;;;474.88;134.82;;;;;;;-144.99;96.61;52248.34;5017396;28;20218;-62
2021/07/09 02:36:49;;;;;;;479.48;138.98;;;;;;;-144.99;96.54;52223.88;5011715;28;20676;-62
2021/07/09 02:39:15;;;;;;;481.20;140.23;;;;;;;-144.99;96.57;52227.97;5012227;28;20239;-61
2021/07/09 02:41:42;;;;;;;481.17;141.63;;;;;;;-144.99;96.83;52248.34;5022967;28;20617;-62
2021/07/09 02:44:08;;;;;;;482.80;141.27;;;;;;;-144.99;96.71;52248.34;5012945;28;20731;-61
2021/07/09 02:46:35;;;;;;;475.95;136.35;;;;;;;-144.99;96.89;52250.38;5011891;28;20222;-62
2021/07/09 02:49:02;;;;;;;474.38;132.25;;;;;;;-144.99;96.77;52232.03;5011752;28;20234;-60
2021/07/09 02:51:30;;;;;;;473.67;136.25;;;;;;;-144.99;96.39;52250.38;5011736;28;20657;-60
2021/07/09 02:53:56;;;;;;;473.05;134.15;;;;;;;-144.99;96.40;52301.34;5011460;28;20210;-60
2021/07/09 02:56:23;;;;;;;342.23;93.82;;;;;;;-144.99;96.73;52215.75;5012011;28;20605;-60
2021/07/09 02:58:50;;;;;;;477.40;137.27;;;;;;;-144.99;96.45;52248.34;5011300;28;20218;-59
2021/07/09 03:01:16;;;;;;;475.67;128.02;;;;;;;-144.99;96.56;52240.19;5011453;28;20685;-59
2021/07/09 03:03:43;;;;;;;345.25;95.53;;;;;;;-144.99;96.49;52264.66;5010954;28;20238;-59
2021/07/09 03:06:10;;;;;;;478.55;132.13;;;;;;;-144.99;96.37;52219.81;5011712;28;20215;-58
2021/07/09 03:08:37;;;;;;;475.90;129.48;;;;;;;-144.99;96.48;52248.34;5018664;28;20639;-57
2021/07/09 03:11:04;;;;;;;475.58;129.65;;;;;;;-144.99;96.46;52264.66;5015516;28;20375;-57
2021/07/09 03:13:31;;;;;;;476.98;130.88;;;;;;;-144.99;96.47;52264.66;5011029;28;20582;-58
2021/07/09 03:15:57;;;;;;;346.25;96.15;;;;;;;-144.99;96.24;52252.44;5011790;28;20450;-59
2021/07/09 03:18:24;;;;;;;477.63;132.32;;;;;;;-144.99;96.35;52227.97;5020995;28;20207;-59
2021/07/09 03:20:50;;;;;;;343.92;94.38;;;;;;;-144.99;96.37;52248.34;5027150;28;20233;-61
2021/07/09 03:23:17;;;;;;;343.75;93.32;;;;;;;-144.99;96.14;52244.28;5018801;28;20446;-60
2021/07/09 03:25:45;;;;;;;482.55;130.57;;;;;;;-144.99;96.19;52252.44;5011074;28;20211;-60
2021/07/09 03:28:14;;;;;;;482.25;127.25;;;;;;;-144.99;96.08;52244.28;5010712;28;20511;-61
2021/07/09 03:30:41;;;;;;;481.38;130.70;;;;;;;-144.99;96.33;52270.78;5020830;28;20228;-60
2021/07/09 03:33:08;;;;;;;481.25;131.10;;;;;;;-144.99;96.32;52236.13;5010313;28;20223;-60
2021/07/09 03:35:35;;;;;;;481.38;127.97;;;;;;;-144.99;96.59;52234.09;5011544;28;20215;-60
2021/07/09 03:38:02;;;;;;;201.33;56.20;;;;;;;-144.99;96.61;52248.34;5010871;28;20245;-60
2021/07/09 03:40:28;;;;;;;207.48;56.10;;;;;;;-144.99;96.57;52283.00;5018532;28;20652;-60
2021/07/09 03:42:57;;;;;;;477.50;131.00;;;;;;;-144.99;96.91;52246.31;5016778;28;20217;-61
2021/07/09 03:45:23;;;;;;;476.67;131.32;;;;;;;-144.99;96.59;52280.97;5010394;28;20230;-61
2021/07/09 03:47:50;;;;;;;474.40;130.77;;;;;;;-144.99;96.64;52252.44;5010504;28;20578;-60
2021/07/09 03:50:16;;;;;;;338.95;92.88;;;;;;;-144.99;96.52;52285.03;5010103;28;20238;-60
2021/07/09 03:52:43;;;;;;;473.63;131.80;;;;;;;-144.99;96.60;52244.28;5016022;28;20209;-60
2021/07/09 03:55:10;;;;;;;473.60;129.50;;;;;;;-144.99;96.71;52285.03;5020301;28;20206;-60
2021/07/09 03:57:37;;;;;;;470.50;126.72;;;;;;;-144.99;96.48;52232.03;5010312;28;20215;-61
2021/07/09 04:00:07;;;;;;;474.90;131.40;;;;;;;-144.99;96.45;52223.88;5009543;28;20242;-60
2021/07/09 04:02:33;;;;;;;475.27;131.13;;;;;;;-144.99;96.45;52225.94;5009538;28;20218;-61
2021/07/09 04:05:00;;;;;;;474.88;128.82;;;;;;;-144.99;96.21;52240.19;5009748;28;20242;-60
2021/07/09 04:07:26;;;;;;;476.45;131.75;;;;;;;-144.99;96.43;52219.81;5009794;28;20222;-61
2021/07/09 04:09:55;;;;;;;474.95;133.40;;;;;;;-144.99;96.49;52223.88;5009420;28;20227;-62
2021/07/09 04:12:21;;;;;;;471.85;131.52;;;;;;;-144.99;96.48;52289.13;5009649;28;20214;-62
2021/07/09 04:14:48;;;;;;;470.70;129.05;;;;;;;-144.99;96.21;52223.88;5009742;28;20207;-62
2021/07/09 04:17:15;;;;;;;470.13;129.48;;;;;;;-144.99;96.31;52276.88;5016542;28;20210;-62
2021/07/09 04:19:42;;;;;;;472.70;128.18;;;;;;;-144.99;96.47;52232.03;5010851;28;20234;-62
2021/07/09 04:22:09;;;;;;;472.63;128.20;;;;;;;-144.99;96.47;52252.44;5010858;28;20214;-62
2021/07/09 04:24:35;;;;;;;476.42;130.05;;;;;;;-144.99;96.12;52260.56;5009449;28;20238;-62
2021/07/09 04:27:02;;;;;;;470.55;127.30;;;;;;;-144.99;96.21;52256.50;5010103;28;20693;-61
2021/07/09 04:29:29;;;;;;;475.40;129.05;;;;;;;-144.99;96.33;52244.28;5008051;28;20726;-64
2021/07/09 04:31:55;;;;;;;196.67;56.23;;;;;;;-144.99;96.21;52227.97;5017015;28;20205;-63
2021/07/09 04:34:23;;;;;;;473.42;128.13;;;;;;;-144.99;95.96;52252.44;5009216;28;21228;-63
2021/07/09 04:36:50;;;;;;;195.40;54.27;;;;;;;-144.99;95.99;52287.06;5009784;28;20215;-65
2021/07/09 04:39:16;;;;;;;473.02;129.98;;;;;;;-144.99;96.18;52215.75;5009734;28;20657;-64
2021/07/09 04:41:43;;;;;;;197.30;54.37;;;;;;;-144.99;96.17;52227.97;5021377;28;20210;-64
2021/07/09 04:44:09;;;;;;;473.90;127.05;;;;;;;-144.99;95.99;52195.34;5011286;28;20670;-63
2021/07/09 04:46:36;;;;;;;197.57;56.40;;;;;;;-144.99;95.95;52227.97;5010053;28;20233;-63
2021/07/09 04:49:03;;;;;;;197.47;57.33;;;;;;;-144.99;95.84;52193.31;5009056;28;20996;-63
2021/07/09 04:51:31;;;;;;;475.17;127.90;;;;;;;-144.99;95.80;52219.81;5009658;28;20629;-64
2021/07/09 04:53:57;;;;;;;474.58;129.05;;;;;;;-144.99;95.67;52252.44;5008980;28;20218;-63
2021/07/09 04:56:24;;;;;;;475.02;129.07;;;;;;;-144.99;95.52;52207.59;5009498;28;20579;-64
2021/07/09 04:58:50;;;;;;;474.77;130.70;;;;;;;-144.99;95.22;52244.28;5008956;28;20222;-64
2021/07/09 05:01:17;;;;;;;477.55;128.38;;;;;;;-144.99;95.14;52195.34;5008989;28;20652;-63
2021/07/09 05:03:43;;;;;;;339.17;92.43;;;;;;;-144.99;95.30;52232.03;5008453;28;20285;-63
2021/07/09 05:06:10;;;;;;;480.45;129.23;;;;;;;-144.99;95.34;52289.13;5008905;28;20234;-63
2021/07/09 05:08:38;;;;;;;196.37;54.77;;;;;;;-144.99;95.32;52207.59;5009473;28;20223;-59
2021/07/09 05:11:05;;;;;;;479.70;127.38;;;;;;;-144.99;95.20;52215.75;5009123;28;20713;-60
2021/07/09 05:13:31;;;;;;;478.17;127.78;;;;;;;-144.99;95.28;52223.88;5012365;28;20210;-60
2021/07/09 05:16:00;;;;;;;341.90;91.32;;;;;;;-144.99;95.19;52244.28;5021991;28;20638;-59
2021/07/09 05:18:26;;;;;;;202.55;55.30;;;;;;;-144.99;95.36;52248.34;5013073;28;20212;-60
2021/07/09 05:20:53;;;;;;;205.52;56.83;;;;;;;-144.99;94.96;52223.88;5014207;28;20739;-60
2021/07/09 05:23:19;;;;;;;480.63;123.03;;;;;;;-144.99;94.73;52268.72;5026535;28;20213;-59
2021/07/09 05:25:47;;;;;;;203.23;53.75;;;;;;;-144.99;94.27;52240.19;5012932;28;20238;-59
2021/07/09 05:28:14;;;;;;;483.60;125.75;;;;;;;-144.99;94.17;52232.03;5008935;28;20390;-63
2021/07/09 05:30:40;;;;;;;486.02;125.28;;;;;;;-144.99;94.15;52244.28;5019659;28;20265;-62
2021/07/09 05:33:07;;;;;;;343.10;88.55;;;;;;;-144.99;93.96;52193.31;5008907;28;20230;-62
2021/07/09 05:35:36;;;;;;;482.38;125.85;;;;;;;-144.99;93.68;52268.72;5009136;28;20214;-63
2021/07/09 05:38:04;;;;;;;344.13;88.28;;;;;;;-144.99;93.42;52215.75;5009570;28;20229;-62
2021/07/09 05:40:31;;;;;;;484.80;125.53;;;;;;;-144.99;93.05;52179.06;5016690;28;20233;-62
2021/07/09 05:43:00;;;;;;;487.27;126.60;;;;;;;-144.99;92.69;52227.97;5015073;28;20206;-63
2021/07/09 05:45:27;;;;;;;345.10;90.10;;;;;;;-144.99;92.42;52232.03;5010618;28;20226;-62
2021/07/09 05:47:54;;;;;;;492.70;129.50;;;;;;;-144.99;92.02;52223.88;5012906;28;20213;-62
2021/07/09 05:50:21;;;;;;;354.02;103.57;;;;;;;-144.99;91.98;52234.09;5012710;28;20702;-62
2021/07/09 05:52:48;;;;;;;353.10;110.10;;;;;;;-144.99;91.75;52227.97;5014753;28;20484;-61
2021/07/09 05:55:15;;;;;;;491.75;156.75;;;;;;;-144.99;91.51;52238.16;5018661;28;20302;-61
2021/07/09 05:57:42;;;;;;;497.35;149.32;;;;;;;-144.99;91.54;52221.84;5012001;28;20681;-61
2021/07/09 06:00:11;;;;;;;501.35;147.70;;;;;;;-144.99;91.37;52223.88;5012439;28;20243;-60
2021/07/09 06:02:41;;;;;;;502.40;165.73;;;;;;;-144.99;91.25;52183.13;5011749;28;20216;-62
2021/07/09 06:05:10;;;;;;;363.40;166.17;;;;;;;-144.99;90.88;52230.00;5012105;28;20232;-61
2021/07/09 06:07:37;;;;;;;496.88;161.50;;;;;;;-144.99;90.53;52207.59;5012013;28;21041;-61
2021/07/09 06:10:05;;;;;;;346.10;114.20;;;;;;;-144.99;90.50;52201.47;5011661;28;20243;-61
2021/07/09 06:12:32;;;;;;;480.00;167.13;;;;;;;-144.99;89.97;52219.81;5012459;28;20661;-62
2021/07/09 06:14:58;;;;;;;347.70;114.43;;;;;;;-144.99;89.60;52223.88;5012752;28;20213;-62
2021/07/09 06:17:27;;;;;;;489.02;174.20;;;;;;;-144.99;89.09;52215.75;5020645;28;20630;-62
2021/07/09 06:19:54;;;;;;;351.17;124.57;;;;;;;-144.99;89.09;52238.16;4999103;28;20740;-61
2021/07/09 06:22:21;;;;;;;497.02;185.90;;;;;;;-144.99;88.57;52223.88;5011860;28;20627;-60
2021/07/09 06:24:47;;;;;;;488.50;185.15;;;;;;;-144.99;88.51;52230.00;5012143;28;20240;-61
2021/07/09 06:27:14;;;;;;;487.10;191.18;;;;;;;-144.99;87.93;52215.75;5011784;28;20223;-60
2021/07/09 06:29:40;;;;;;;487.52;195.23;;;;;;;-144.99;87.44;52195.34;5010785;28;20224;-60
2021/07/09 06:32:08;;;;;;;491.25;207.23;;;;;;;-144.99;87.29;52215.75;5019074;28;20212;-60
2021/07/09 06:34:35;;;;;;;488.50;210.82;;;;;;;-144.99;87.25;52211.66;5011759;28;20217;-61
2021/07/09 06:37:02;;;;;;;484.02;212.95;;;;;;;-144.99;86.87;52219.81;5011527;28;20222;-61
2021/07/09 06:39:29;;;;;;;494.13;230.35;;;;;;;-144.99;86.48;52244.28;5014024;28;20237;-60
2021/07/09 06:41:55;;;;;;;496.73;226.63;;;;;;;-144.99;86.53;52211.66;5023668;28;20215;-62
2021/07/09 06:44:22;;;;;;;494.95;222.27;;;;;;;-144.99;86.46;52207.59;4999380;28;20224;-61
2021/07/09 06:46:48;;;;;;;495.17;231.00;;;;;;;-144.99;86.36;52217.78;5012969;28;20220;-62
2021/07/09 06:49:15;;;;;;;493.60;231.00;;;;;;;-144.99;86.36;52195.34;5012897;28;20241;-61
2021/07/09 06:51:43;;;;;;;502.00;234.85;;;;;;;-144.99;86.27;52185.16;5013554;28;20210;-63
2021/07/09 06:54:09;;;;;;;497.15;230.63;;;;;;;-144.99;86.25;52215.75;5013913;28;20217;-62
2021/07/09 06:56:36;;;;;;;502.67;237.27;;;;;;;-144.99;86.19;52199.44;5011525;28;20689;-62
2021/07/09 06:59:02;;;;;;;502.10;242.63;;;;;;;-144.99;85.79;52179.06;5011496;28;20300;-59
2021/07/09 07:01:29;;;;;;;507.73;248.18;;;;;;;-144.99;85.58;52193.31;5013003;28;20223;-61
2021/07/09 07:03:56;;;;;;;506.27;250.32;;;;;;;-144.99;85.46;52199.44;5013081;28;20225;-62
2021/07/09 07:06:22;;;;;;;506.80;248.25;;;;;;;-144.99;85.38;52197.41;5019290;28;20610;-62
2021/07/09 07:08:50;;;;;;;510.52;266.23;;;;;;;-144.99;85.09;52168.84;5017527;28;20216;-62
2021/07/09 07:11:17;;;;;;;511.38;280.13;;;;;;;-144.99;84.87;52195.34;5011623;28;20222;-63
2021/07/09 07:13:43;;;;;;;523.27;304.43;;;;;;;-144.99;84.37;52191.28;5011149;28;20226;-62
2021/07/09 07:16:10;;;;;;;518.23;316.57;;;;;;;-144.99;83.78;52223.88;5011536;28;20651;-62
2021/07/09 07:18:37;;;;;;;509.63;312.00;;;;;;;-144.99;83.46;52234.09;5021254;28;20980;-62
2021/07/09 07:21:03;;;;;;;512.97;327.70;;;;;;;-144.99;83.41;52215.75;5022095;28;20991;-62
2021/07/09 07:23:32;;;;;;;513.63;338.67;;;;;;;-144.99;83.22;52181.09;5018812;28;20738;-64
2021/07/09 07:26:00;;;;;;;519.77;352.53;;;;;;;-144.99;82.52;52174.97;5019698;28;20671;-64
2021/07/09 07:28:27;;;;;;;517.17;361.57;;;;;;;-144.99;81.86;52223.88;5018892;28;20629;-62
2021/07/09 07:30:53;;;;;;;508.07;361.47;;;;;;;-144.99;81.64;52227.97;5021188;28;20653;-63
2021/07/09 07:33:20;;;;;;;502.50;348.07;;;;;;;-144.99;81.33;52199.44;5010717;28;20628;-61
2021/07/09 07:35:47;;;;;;;490.97;360.13;;;;;;;-144.99;80.87;52203.50;5010745;28;20622;-62
2021/07/09 07:38:13;;;;;;;512.03;370.70;;;;;;;-144.99;80.50;52199.44;5010854;28;21197;-61
2021/07/09 07:40:40;;;;;;;532.83;395.53;;;;;;;-144.99;80.52;52211.66;5018124;28;20657;-62
2021/07/09 07:43:08;;;;;;;534.17;398.10;;;;;;;-144.99;80.49;52164.78;5023599;28;20656;-62
2021/07/09 07:45:35;;;;;;;537.20;403.63;;;;;;;-144.99;80.56;52195.34;5011624;28;20788;-62
2021/07/09 07:48:01;;;;;;;538.53;408.50;;;;;;;-144.99;80.71;52187.19;5010429;28;20636;-63
2021/07/09 07:50:28;;;;;;;544.00;422.33;;;;;;;-144.99;79.96;52181.09;5011248;28;21046;-63
2021/07/09 07:52:55;;;;;;;534.00;405.67;;;;;;;-144.99;80.08;52174.97;5013750;28;20633;-63
2021/07/09 07:55:22;;;;;;;534.10;409.60;;;;;;;-144.99;80.02;52211.66;5015240;28;20629;-63
2021/07/09 07:57:48;;;;;;;526.83;402.60;;;;;;;-144.99;79.61;52160.72;5011922;28;20637;-62
2021/07/09 08:00:17;;;;;;;519.50;392.97;;;;;;;-144.99;79.59;52191.28;5010044;28;21268;-62
2021/07/09 08:02:43;;;;;;;537.83;423.17;;;;;;;-144.99;79.44;52166.81;5010294;28;20626;-63
2021/07/09 08:05:11;;;;;;;545.77;422.70;;;;;;;-144.99;78.79;52166.81;5011207;28;20677;-63
2021/07/09 08:07:37;;;;;;;467.80;357.13;;;;;;;-144.99;79.33;52166.81;5008714;28;20648;-63
2021/07/09 08:10:05;;;;;;;416.53;347.60;;;;;;;-144.99;79.05;52181.09;5010886;28;20670;-62
2021/07/09 08:12:32;;;;;;;446.10;358.30;;;;;;;-144.99;79.27;52187.19;5017438;28;20677;-63
2021/07/09 08:14:58;;;;;;;439.43;351.73;;;;;;;-144.99;79.24;52140.31;5019077;28;20654;-63
2021/07/09 08:17:26;;;;;;;450.47;370.87;;;;;;;-144.99;79.01;52199.44;5014181;28;20635;-62
2021/07/09 08:19:53;;;;;;;433.70;362.87;;;;;;;-144.99;78.24;52199.44;5008712;28;20655;-62
2021/07/09 08:22:20;;;;;;;447.87;378.80;;;;;;;-144.99;77.98;52195.34;5013303;28;20627;-62
2021/07/09 08:24:46;;;;;;;431.70;367.00;;;;;;;-144.99;78.56;52183.13;5009079;28;20646;-62
2021/07/09 08:27:13;;;;;;;428.93;373.13;;;;;;;-144.99;78.30;52187.19;5014127;28;21358;-62
2021/07/09 08:29:39;;;;;;;421.03;374.43;;;;;;;-144.99;78.41;52185.16;5007552;28;20662;-62
2021/07/09 08:32:07;;;;;;;463.37;376.20;;;;;;;-144.99;77.90;52199.44;5019844;28;20631;-62
2021/07/09 08:34:36;;;;;;;461.63;379.30;;;;;;;-144.99;77.38;52195.34;4996446;28;20641;-63
2021/07/09 08:37:03;;;;;;;470.73;382.03;;;;;;;-144.99;77.82;52195.34;5010120;28;20630;-63
2021/07/09 08:39:30;;;;;;;490.27;397.37;;;;;;;-144.99;78.06;52197.41;5008268;28;20662;-63
2021/07/09 08:41:57;;;;;;;475.77;381.40;;;;;;;-144.99;78.08;52183.13;5017899;28;20628;-62
2021/07/09 08:44:24;;;;;;;489.97;398.17;;;;;;;-144.99;77.94;52183.13;5019468;28;20627;-63
2021/07/09 08:46:55;;;;;;;475.60;390.93;;;;;;;-144.99;77.32;52211.66;5009487;28;20664;-63
2021/07/09 08:49:22;;;;;;;484.00;395.97;;;;;;;-144.99;76.84;52179.06;5009127;28;21000;-63
2021/07/09 08:51:50;;;;;;;478.27;400.80;;;;;;;-144.99;76.40;52215.75;5008764;28;20647;-67
2021/07/09 08:54:18;;;;;;;473.10;402.83;;;;;;;-144.99;76.41;52203.50;5025079;28;20623;-66
2021/07/09 08:56:46;;;;;;;469.50;391.23;;;;;;;-144.99;76.78;52211.66;5009710;28;20638;-68
2021/07/09 08:59:13;;;;;;;476.70;401.67;;;;;;;-144.99;76.29;52201.47;5016115;28;20673;-68
2021/07/09 09:01:50;;;;;;;474.33;411.80;;;;;;;-144.99;76.11;52130.13;5017445;28;20632;-68
2021/07/09 09:04:24;;;;;;;461.63;404.53;;;;;;;-144.99;75.63;52193.31;5008739;28;21167;-67
2021/07/09 09:07:02;;;;;;;455.20;405.47;;;;;;;-144.99;74.87;52150.53;5009324;28;20694;-66
2021/07/09 09:09:29;;;;;;;445.77;397.67;;;;;;;-144.99;74.14;52146.44;5003598;28;20653;-67
2021/07/09 09:12:04;;;;;;;453.60;403.57;;;;;;;-144.99;73.59;52199.44;5002791;28;20637;-67
2021/07/09 09:14:33;;;;;;;444.20;395.87;;;;;;;-144.99;72.32;52138.28;5007942;28;21001;-67
2021/07/09 09:17:00;;;;;;;455.77;406.47;;;;;;;-144.99;72.26;52146.44;5014553;28;21195;-67
2021/07/09 09:19:27;;;;;;;467.87;419.43;;;;;;;-144.99;71.53;52117.91;5006712;28;20661;-67
2021/07/09 09:22:12;;;;;;;448.70;403.80;;;;;;;-144.99;70.48;52164.78;5021282;28;21196;-68
2021/07/09 09:24:40;;;;;;;438.90;393.23;;;;;;;-144.99;69.91;52115.88;5014442;28;20629;-67
2021/07/09 09:27:20;;;;;;;439.80;395.10;;;;;;;-144.99;68.61;52115.88;5020118;28;20686;-66
2021/07/09 09:29:47;;;;;;;451.37;405.97;;;;;;;-144.99;67.96;52101.59;5010015;28;21057;-67
2021/07/09 09:32:14;;;;;;;450.30;403.13;;;;;;;-144.99;67.03;52113.84;5021076;28;20625;-68
2021/07/09 09:34:42;;;;;;;457.50;409.10;;;;;;;-144.99;66.26;52154.59;5013282;28;21035;-67
2021/07/09 09:37:12;;;;;;;462.40;412.93;;;;;;;-144.99;65.93;52134.22;5013314;28;20624;-67
2021/07/09 09:39:40;;;;;;;457.47;408.43;;;;;;;-144.99;64.66;52140.31;5014338;28;20987;-68
2021/07/09 09:42:08;;;;;;;453.30;404.70;;;;;;;-144.99;64.46;52097.53;5014883;28;20641;-67
2021/07/09 09:44:35;;;;;;;449.87;401.07;;;;;;;-144.99;64.05;52138.28;5011060;28;20628;-66
2021/07/09 09:47:12;;;;;;;453.27;403.97;;;;;;;-144.99;63.66;52146.44;5005044;28;20676;-65
2021/07/09 09:49:39;;;;;;;441.97;392.87;;;;;;;-144.99;63.86;52115.88;5010374;28;20665;-65
2021/07/09 09:52:06;;;;;;;448.40;398.77;;;;;;;-144.99;63.92;52121.97;5011382;28;20628;-66
2021/07/09 09:54:35;;;;;;;448.53;393.40;;;;;;;-144.99;64.58;52154.59;5012167;28;20630;-65
2021/07/09 09:57:04;;;;;;;451.80;390.90;;;;;;;-144.99;64.81;52138.28;5011190;28;21271;-65
2021/07/09 09:59:32;;;;;;;457.03;407.13;;;;;;;-144.99;65.02;52174.97;5013134;28;20998;-65
2021/07/09 10:02:01;;;;;;;449.37;392.30;;;;;;;-144.99;65.54;52140.31;5013168;28;20665;-65
2021/07/09 10:04:29;;;;;;;454.83;397.43;;;;;;;-144.99;65.80;52134.22;5008458;28;20721;-65
2021/07/09 10:06:56;;;;;;;437.03;386.10;;;;;;;-144.99;65.77;52146.44;5014070;28;20674;-65
2021/07/09 10:09:24;;;;;;;449.90;390.03;;;;;;;-144.99;66.02;52185.16;5015462;28;20646;-65
2021/07/09 10:11:53;;;;;;;458.93;394.50;;;;;;;-144.99;66.31;52179.06;5012085;28;21210;-66
2021/07/09 10:14:22;;;;;;;459.60;387.00;;;;;;;-144.99;65.62;52146.44;5012978;28;20635;-66
2021/07/09 10:16:51;;;;;;;460.83;384.77;;;;;;;-144.99;66.15;52138.28;5016255;28;20643;-66
2021/07/09 10:19:21;;;;;;;457.27;383.40;;;;;;;-144.99;65.98;52146.44;5013295;28;21244;-63
2021/07/09 10:21:48;;;;;;;461.70;378.93;;;;;;;-144.99;65.75;52140.31;5015784;28;20637;-64
2021/07/09 10:24:17;;;;;;;463.70;386.87;;;;;;;-144.99;65.89;52154.59;5013580;28;20659;-65
2021/07/09 10:26:48;;;;;;;457.33;382.10;;;;;;;-144.99;66.34;52142.38;5023620;28;21254;-63
2021/07/09 10:29:18;;;;;;;458.57;393.90;;;;;;;-144.99;66.20;52158.66;5013669;28;20658;-62
2021/07/09 10:31:46;;;;;;;459.40;388.60;;;;;;;-144.99;65.77;52187.19;5017617;28;20989;-62
2021/07/09 10:34:31;;;;;;;461.23;376.90;;;;;;;-144.99;65.27;52187.19;5013356;28;20637;-59
2021/07/09 10:37:00;;;;;;;461.07;379.93;;;;;;;-144.99;65.31;52132.19;5012231;28;20630;-57
2021/07/09 10:39:35;;;;;;;465.23;377.40;;;;;;;-144.99;65.12;52162.75;5016985;28;20715;-58
2021/07/09 10:42:29;;;;;;;467.13;375.63;;;;;;;-144.99;65.23;52158.66;5014882;28;20639;-57
2021/07/09 10:44:59;;;;;;;472.93;380.03;;;;;;;-144.99;65.79;52146.44;4998906;28;20631;-57
2021/07/09 10:47:37;;;;;;;469.50;384.97;;;;;;;-144.99;65.84;52181.09;5019352;28;20662;-57
2021/07/09 10:50:05;;;;;;;469.63;376.77;;;;;;;-144.99;65.52;52172.94;5004814;28;20669;-58